Terminal Aerodrome Forecast
Issued by NWS

Home | Current Version | Previous Version | Text Only | Print | Product List | Glossary On
Versions: 1 2 3 4 5 6 7 8 9 10 11 12 13 14 15 16
000
FTUS44 KOHX 132300
TAFCKV
TAF
KCKV 132322Z 1400/1424 25007KT P6SM BKN250
     FM141400 24010G18KT P6SM SCT050 SCT120 BKN250
     FM141600 25012G18KT P6SM VCTS SCT050CB BKN120
     FM141900 25010G18KT 4SM TSRA BKN050CB
      TEMPO 1419/1423 1SM +TSRA BKN025CB OVC050=

USA.gov is the U.S. government's official web portal to all federal, state and local government web resources and services.